Crawfordville, Georgia
Current Conditions -  °F | °C
As of 10:15 PM on Saturday 22 Nov 2014 (Local Time) from K3J7 Reporting Station
Overcast Overcast  
Wind Chill: 54°   Ceiling: 3600
Heat Index: 54°   Visibility: 10mi
Dew Point: 36°   Wind: 0mph
Humidity: 51%   Direction: NA
Pressure: 30.23"   Gusts: NA
Location:  33.55°N, 82.9°W
Report Text: K3J7 230315Z AUTO 00000KT 10SM OVC036 12/02 A3023 RMK AO2
Loading
Personal Weather Stations






























Interactive Weather Map New forecast layout! Learn more

10-Day Weather Forecast

Advertisements
Track Severe Weather on mobile